Data for 04/03/2005

Time Sea-Level Adjusted Pressure Absolute Pressure Temperature Relative Humidity Dew Point   
(mb) (inHg) (mb) (inHg) (C) (F) (%) (C) (F)
00:05 1010 29.83 839 24.78 6.2 43.1 39 -6.8 19.8
00:10 1010 29.83 839 24.78 6.2 43.2 40 -6.4 20.5
00:15 1010 29.83 839 24.78 5.7 42.3 42 -6.3 20.6
00:20 1010 29.83 839 24.78 6 42.8 40 -6.7 20
00:25 1010 29.83 839 24.78 6.3 43.3 39 -6.5 20.2
00:30 1010 29.83 839 24.78 6.3 43.4 39 -6.5 20.3
00:35 1010 29.83 839 24.78 6.5 43.7 38 -6.6 20
00:40 1010 29.83 839 24.78 6.6 43.9 39 -6.5 20.4
00:45 1010 29.83 839 24.78 6.3 43.3 42 -5.8 21.5
00:50 1010 29.83 839 24.78 5.7 42.2 43 -5.9 21.3
00:55 1010 29.83 839 24.78 5.5 41.9 43 -6 21.1
01:00 1010 29.83 839 24.78 5.6 42 44 -5.7 21.7
01:05 1010 29.83 839 24.78 5.5 41.9 45 -5.6 21.9
01:10 1010 29.83 839 24.78 5.6 42.2 44 -5.5 22
01:15 1010 29.83 839 24.78 5.3 41.5 47 -5.2 22.6
01:20 1010 29.83 839 24.78 4.8 40.7 47 -5.5 22
01:25 1010 29.83 839 24.78 4.5 40.1 50 -5.1 22.9
01:30 1010 29.83 839 24.78 4 39.2 51 -5.3 22.4
01:35 1010 29.83 839 24.78 3.7 38.6 52 -5.2 22.6
01:40 1010 29.83 839 24.78 3.5 38.3 52 -5.4 22.3
01:45 1010 29.83 839 24.78 3.7 38.6 52 -5.3 22.4
01:50 1010 29.83 839 24.78 3.6 38.5 52 -5.3 22.5
01:55 1010 29.83 839 24.78 3.3 38 54 -5.2 22.6
03:00 1010 29.83 839 24.78 3.5 38.3 52 -5.4 22.4
03:05 1010 29.83 839 24.78 3.9 39 51 -5.3 22.4
03:10 1010 29.83 839 24.78 4 39.2 52 -5 23.1
03:15 1010 29.83 839 24.78 3.1 37.6 57 -4.5 23.8
03:20 1010 29.83 839 24.78 2.2 35.9 61 -4.6 23.7
03:25 1009 29.8 839 24.78 1.7 35.1 62 -4.8 23.4
03:30 1009 29.8 839 24.78 1.5 34.6 63 -4.8 23.4
03:35 1009 29.8 838 24.75 1.3 34.4 64 -4.6 23.6
03:40 1009 29.8 838 24.75 1.6 34.9 59 -5.5 22.1
03:45 1009 29.8 838 24.75 2.1 35.8 58 -5.2 22.6
03:50 1009 29.8 838 24.75 2.3 36.1 56 -5.6 22
03:55 1009 29.8 838 24.75 3 37.3 54 -5.5 22.1
04:00 1009 29.8 838 24.75 2.8 37 56 -5.1 22.8
04:05 1009 29.8 838 24.75 2.3 36.2 59 -4.9 23.2
04:10 1009 29.8 838 24.75 2 35.6 59 -5.1 22.8
04:15 1009 29.8 838 24.75 2.3 36.2 58 -5.2 22.6
04:20 1009 29.8 838 24.75 2.5 36.6 58 -4.9 23.1
04:25 1009 29.8 838 24.75 2.2 36 61 -4.4 24
04:30 1009 29.8 838 24.75 1.7 35 63 -4.7 23.6
04:35 1009 29.8 838 24.75 1.8 35.2 61 -5 23.1
04:40 1009 29.8 838 24.75 2 35.7 60 -5 23.1
04:45 1009 29.8 838 24.75 2.3 36.1 59 -4.9 23.1
04:50 1009 29.8 838 24.75 2.5 36.5 59 -4.8 23.4
04:55 1009 29.8 838 24.75 2.5 36.6 59 -4.7 23.5
05:00 1009 29.8 838 24.75 2.7 36.8 59 -4.6 23.7
05:05 1009 29.8 838 24.75 2.8 37 59 -4.5 23.8
05:10 1009 29.8 838 24.75 2.8 37 59 -4.4 24.1
05:15 1009 29.8 838 24.75 2.7 36.9 60 -4.3 24.3
05:20 1009 29.8 838 24.75 2.8 37.1 60 -4.3 24.3
05:25 1009 29.8 838 24.75 2.9 37.3 60 -4.1 24.7
05:30 1008 29.77 838 24.75 2.8 37.1 60 -4.1 24.6
05:35 1009 29.8 838 24.75 2.9 37.1 60 -4.1 24.6
05:40 1008 29.77 838 24.75 2.8 37.1 61 -3.9 24.9
05:45 1008 29.77 838 24.75 2.7 36.9 62 -4 24.9
05:50 1008 29.77 838 24.75 2.7 36.8 62 -3.8 25.2
05:55 1008 29.77 837 24.72 2.8 37 61 -4 24.8
06:00 1008 29.77 837 24.72 2.9 37.3 60 -4 24.8
06:05 1008 29.77 837 24.72 2.8 37.1 62 -3.8 25.2
06:10 1008 29.77 837 24.72 2.8 37.1 62 -3.8 25.1
06:15 1008 29.77 837 24.72 2.7 36.9 62 -3.8 25.2
06:20 1008 29.77 837 24.72 2.9 37.2 61 -3.9 25
06:25 1008 29.77 837 24.72 2.9 37.2 62 -3.6 25.4
06:30 1008 29.77 837 24.72 2.8 37.1 62 -3.7 25.3
06:35 1008 29.77 837 24.72 2.8 37.1 62 -3.7 25.3
06:40 1008 29.77 837 24.72 2.7 36.9 63 -3.7 25.3
06:45 1008 29.77 837 24.72 2.8 37.1 62 -3.6 25.4
06:50 1008 29.77 837 24.72 2.8 37.1 60 -4.1 24.6
06:55 1008 29.77 837 24.72 3 37.4 60 -4 24.8
07:00 1008 29.77 837 24.72 3 37.3 63 -3.5 25.7
07:05 1008 29.77 837 24.72 2.9 37.3 63 -3.5 25.7
07:10 1008 29.77 837 24.72 3 37.4 62 -3.7 25.4
07:15 1008 29.77 837 24.72 3.1 37.6 61 -3.7 25.3
07:20 1008 29.77 837 24.72 3.4 38.1 59 -3.8 25.2
07:25 1008 29.77 837 24.72 3.7 38.7 58 -3.7 25.3
07:30 1008 29.77 837 24.72 3.8 38.9 58 -3.7 25.3
07:35 1008 29.77 837 24.72 4 39.1 58 -3.6 25.6
07:40 1008 29.77 837 24.72 4.1 39.4 57 -3.6 25.6
07:45 1008 29.77 837 24.72 4.2 39.6 57 -3.5 25.6
07:50 1008 29.77 837 24.72 4.4 40 56 -3.6 25.6
07:55 1008 29.77 837 24.72 4.5 40.2 56 -3.4 25.8
08:00 1008 29.77 837 24.72 4.7 40.5 55 -3.5 25.7
08:05 1008 29.77 837 24.72 4.9 40.8 55 -3.4 25.8
08:10 1008 29.77 837 24.72 5.1 41.2 54 -3.5 25.8
08:15 1008 29.77 837 24.72 5.4 41.7 53 -3.5 25.7
08:20 1008 29.77 837 24.72 6 42.8 51 -3.4 25.9
08:25 1008 29.77 837 24.72 6.4 43.5 49 -3.5 25.7
08:30 1008 29.77 837 24.72 6.6 43.8 49 -3.4 25.8
08:35 1008 29.77 837 24.72 6.9 44.4 48 -3.5 25.7
08:40 1008 29.77 837 24.72 6.8 44.2 48 -3.5 25.7
08:45 1008 29.77 837 24.72 6.4 43.5 48 -3.9 24.9
08:50 1008 29.77 837 24.72 6.3 43.4 48 -3.7 25.3
08:55 1008 29.77 837 24.72 6 42.8 48 -4.1 24.7
09:00 1008 29.77 837 24.72 5.5 41.9 52 -3.6 25.5
09:05 1008 29.77 837 24.72 5.4 41.7 51 -3.9 25
09:10 1007 29.74 837 24.72 5.5 41.9 51 -3.8 25.2
09:15 1007 29.74 837 24.72 5.7 42.3 52 -3.5 25.8
09:20 1007 29.74 837 24.72 5.5 42 53 -3.4 26
09:25 1007 29.74 837 24.72 5.2 41.4 53 -3.5 25.7
09:30 1007 29.74 836 24.69 5.2 41.4 52 -3.9 25
09:35 1007 29.74 836 24.69 5.5 41.9 50 -4.1 24.6
09:40 1007 29.74 836 24.69 6.2 43.2 47 -4.2 24.4
09:45 1007 29.74 836 24.69 6.5 43.7 47 -3.9 25.1
09:50 1007 29.74 836 24.69 6.6 43.9 47 -3.9 25.1
09:55 1007 29.74 836 24.69 6.9 44.4 45 -4.1 24.6
10:00 1007 29.74 836 24.69 7.8 46 42 -4.2 24.5
10:05 1007 29.74 836 24.69 8.6 47.5 42 -3.7 25.4
10:10 1007 29.74 836 24.69 8.7 47.6 41 -3.9 25
10:15 1007 29.74 836 24.69 8.4 47.2 43 -3.6 25.6
10:20 1007 29.74 836 24.69 8.8 47.8 41 -3.7 25.4
10:25 1007 29.74 836 24.69 9.3 48.7 41 -3.4 25.9
10:30 1007 29.74 836 24.69 10.1 50.2 38 -3.6 25.5
10:35 1007 29.74 836 24.69 10.6 51.1 37 -3.4 26
10:40 1007 29.74 836 24.69 10.8 51.4 38 -3 26.6
10:45 1007 29.74 836 24.69 10.4 50.6 38 -3.2 26.2
10:50 1007 29.74 836 24.69 10.4 50.6 39 -2.8 27
10:55 1007 29.74 836 24.69 10.2 50.4 39 -3.1 26.4
11:00 1007 29.74 836 24.69 10.2 50.3 38 -3.3 26
11:05 1007 29.74 836 24.69 11 51.8 38 -2.7 27.1
11:10 1007 29.74 836 24.69 10.1 50.2 42 -2.3 27.8
11:15 1007 29.74 836 24.69 9.8 49.7 39 -3.4 25.8
11:20 1007 29.74 836 24.69 10.4 50.7 39 -3.1 26.4
11:25 1007 29.74 836 24.69 10.3 50.5 41 -2.5 27.5
11:30 1007 29.74 836 24.69 10 50 41 -2.6 27.3
11:35 1007 29.74 836 24.69 9.7 49.5 42 -2.6 27.4
11:40 1007 29.74 836 24.69 9.4 49 42 -2.7 27.2
11:45 1007 29.74 836 24.69 9.4 48.8 41 -3.2 26.3
11:50 1007 29.74 836 24.69 9.2 48.6 43 -2.7 27.1
11:55 1007 29.74 836 24.69 9.1 48.3 45 -2.3 27.8
12:00 1007 29.74 836 24.69 8.9 48.1 44 -2.6 27.3
12:05 1007 29.74 836 24.69 9.4 48.9 41 -3 26.5
12:10 1006 29.71 836 24.69 9.7 49.4 41 -2.9 26.8
12:15 1006 29.71 836 24.69 10.2 50.4 39 -3.3 26.1
12:20 1006 29.71 836 24.69 10.6 51 39 -2.9 26.9
12:25 1006 29.71 836 24.69 11 51.7 36 -3.3 26
12:30 1006 29.71 836 24.69 11.5 52.7 35 -3.3 26
12:35 1006 29.71 836 24.69 11.4 52.5 35 -3.6 25.5
12:40 1006 29.71 836 24.69 11.5 52.6 34 -3.7 25.3
12:45 1006 29.71 836 24.69 11.8 53.2 34 -3.7 25.3
12:50 1006 29.71 835 24.66 12.3 54.1 32 -3.8 25.1
12:55 1006 29.71 835 24.66 12.3 54.2 33 -3.5 25.6
13:00 1006 29.71 835 24.66 12.2 53.9 33 -3.6 25.5
13:05 1006 29.71 835 24.66 12.4 54.4 32 -3.6 25.5
13:10 1006 29.71 835 24.66 12.6 54.7 32 -3.5 25.7
13:15 1006 29.71 835 24.66 13.1 55.5 30 -4 24.9
13:20 1006 29.71 835 24.66 13.3 56 30 -4 24.8
13:25 1006 29.71 835 24.66 13.1 55.6 30 -4.2 24.5
13:30 1006 29.71 835 24.66 12.6 54.7 33 -3.4 26
13:35 1006 29.71 835 24.66 12.5 54.5 31 -4 24.9
13:40 1006 29.71 835 24.66 12.7 54.8 31 -4.1 24.7
13:45 1006 29.71 835 24.66 12.9 55.2 30 -4.4 24.1
13:50 1006 29.71 835 24.66 12.8 55.1 29 -4.9 23.2
13:55 1006 29.71 835 24.66 12.9 55.3 28 -4.9 23.2
14:00 1006 29.71 835 24.66 12.8 55.1 29 -4.8 23.4
14:05 1006 29.71 835 24.66 12.8 55.1 29 -5 23.1
14:10 1006 29.71 835 24.66 13.2 55.8 28 -4.7 23.5
14:15 1006 29.71 835 24.66 13.5 56.3 28 -4.5 23.9
14:20 1006 29.71 835 24.66 13.5 56.3 29 -4.2 24.4
14:25 1006 29.71 835 24.66 13.2 55.7 28 -5 23
14:30 1005 29.68 835 24.66 13.4 56.1 27 -5.2 22.6
14:35 1005 29.68 835 24.66 13.9 57.1 26 -5.1 22.9
14:40 1005 29.68 835 24.66 14 57.2 27 -4.7 23.5
14:45 1005 29.68 834 24.63 13.7 56.6 26 -5.4 22.2
14:50 1005 29.68 834 24.63 13.8 56.9 26 -5.1 22.8
14:55 1005 29.68 834 24.63 14.1 57.3 26 -5.3 22.5
15:00 1005 29.68 834 24.63 13.8 56.8 24 -6.2 20.8
15:05 1005 29.68 834 24.63 13.6 56.5 25 -5.9 21.4
15:10 1005 29.68 834 24.63 13.4 56.1 26 -5.8 21.6
15:15 1005 29.68 834 24.63 13.5 56.3 22 -7.7 18.2
15:20 1005 29.68 834 24.63 13.6 56.4 21 -8.3 17.1
15:25 1005 29.68 834 24.63 13.5 56.4 21 -8.5 16.7
15:30 1005 29.68 834 24.63 13.4 56.2 20 -8.8 16.1
15:35 1005 29.68 834 24.63 13.4 56 22 -7.7 18.1
15:40 1005 29.68 834 24.63 13.5 56.2 22 -7.9 17.8
15:45 1005 29.68 834 24.63 13.4 56.1 22 -8.1 17.5
15:50 1005 29.68 834 24.63 13.3 55.9 22 -7.8 18
15:55 1005 29.68 834 24.63 13.2 55.7 22 -7.8 17.9
16:00 1005 29.68 834 24.63 13.2 55.8 22 -8 17.6
16:05 1005 29.68 834 24.63 13.2 55.8 24 -7.1 19.2
16:10 1005 29.68 834 24.63 13.2 55.7 22 -7.8 18
16:15 1005 29.68 834 24.63 13.2 55.8 24 -6.9 19.6
16:20 1005 29.68 834 24.63 13.3 55.9 23 -7.2 19.1
16:25 1005 29.68 834 24.63 13.3 55.9 22 -8 17.6
16:30 1005 29.68 834 24.63 13.2 55.8 22 -8 17.6
16:35 1005 29.68 834 24.63 13.2 55.8 22 -7.7 18.1
16:40 1005 29.68 834 24.63 13.4 56.1 22 -7.8 18
16:45 1005 29.68 834 24.63 13.6 56.5 22 -7.7 18.1
16:50 1005 29.68 834 24.63 13.6 56.5 22 -7.4 18.7
16:55 1005 29.68 834 24.63 13.6 56.4 22 -7.8 18
17:00 1005 29.68 834 24.63 13.6 56.4 23 -7.4 18.7
17:05 1005 29.68 834 24.63 13.5 56.2 23 -7.3 18.9
17:10 1005 29.68 834 24.63 13.5 56.2 24 -6.8 19.7
17:15 1005 29.68 834 24.63 13.3 56 24 -6.8 19.8
17:20 1005 29.68 834 24.63 13.2 55.7 25 -6.6 20.1
17:25 1005 29.68 834 24.63 13 55.3 25 -6.4 20.5
17:30 1005 29.68 834 24.63 12.9 55.1 26 -5.9 21.3
17:35 1005 29.68 834 24.63 12.8 55.1 27 -5.6 21.8
17:40 1005 29.68 834 24.63 12.7 54.9 28 -5.5 22.1
17:45 1005 29.68 834 24.63 12.6 54.7 28 -5.4 22.2
17:50 1005 29.68 834 24.63 12.5 54.6 28 -5.2 22.6
17:55 1005 29.68 834 24.63 12.6 54.6 28 -5.2 22.6
18:00 1005 29.68 834 24.63 12.5 54.5 29 -5.2 22.6
18:05 1005 29.68 834 24.63 12.7 54.9 29 -5 23.1
18:10 1005 29.68 834 24.63 12.8 55 28 -5.4 22.3
18:15 1005 29.68 834 24.63 12.9 55.2 28 -5.3 22.5
18:20 1005 29.68 834 24.63 13 55.4 28 -5 23
18:25 1005 29.68 834 24.63 12.9 55.2 28 -5.2 22.6
18:30 1005 29.68 834 24.63 12.8 55 28 -5.2 22.6
18:35 1005 29.68 834 24.63 12.9 55.2 27 -5.5 22.1
18:40 1005 29.68 834 24.63 12.8 55.1 26 -6.1 21
18:45 1005 29.68 834 24.63 12.7 54.8 27 -6 21.2
18:50 1005 29.68 834 24.63 12.6 54.7 28 -5.5 22.1
18:55 1005 29.68 834 24.63 12.5 54.6 27 -5.9 21.4
19:00 1005 29.68 834 24.63 12.5 54.4 27 -6.1 21.1
19:05 1005 29.68 834 24.63 12.4 54.3 27 -5.9 21.4
19:10 1005 29.68 834 24.63 12.3 54.1 28 -5.9 21.4
19:15 1005 29.68 834 24.63 12.2 53.9 28 -5.9 21.5
19:20 1005 29.68 834 24.63 12 53.7 28 -5.9 21.4
19:25 1005 29.68 834 24.63 11.9 53.5 28 -6.2 20.9
19:30 1005 29.68 834 24.63 11.7 53 29 -5.9 21.4
19:35 1005 29.68 834 24.63 11.4 52.5 29 -6.1 20.9
19:40 1005 29.68 834 24.63 11.4 52.4 30 -5.8 21.6
19:45 1005 29.68 834 24.63 11.2 52.2 30 -5.7 21.7
19:50 1005 29.68 834 24.63 11 51.9 31 -5.4 22.2
19:55 1005 29.68 834 24.63 10.8 51.4 31 -5.6 21.9
20:00 1005 29.68 834 24.63 10.6 51.1 32 -5.3 22.5
20:05 1005 29.68 834 24.63 10.2 50.4 33 -5.4 22.2
20:10 1005 29.68 834 24.63 10 50.1 33 -5.6 21.9
20:15 1005 29.68 834 24.63 9.8 49.7 33 -5.6 21.8
20:20 1005 29.68 834 24.63 10 50 32 -5.9 21.3
20:25 1005 29.68 834 24.63 10.1 50.1 33 -5.6 21.9
20:30 1005 29.68 834 24.63 9.8 49.6 33 -5.6 21.9
20:35 1005 29.68 834 24.63 9.8 49.6 34 -5.3 22.5
20:40 1005 29.68 834 24.63 9.7 49.5 34 -5.3 22.5
20:45 1005 29.68 834 24.63 9.8 49.6 33 -5.6 21.9
20:50 1005 29.68 834 24.63 10 49.9 33 -5.6 21.8
20:55 1005 29.68 834 24.63 10 49.9 34 -5 23.1
21:00 1005 29.68 834 24.63 9.9 49.8 34 -5.2 22.6
21:05 1005 29.68 834 24.63 9.9 49.9 33 -5.4 22.2
21:10 1005 29.68 834 24.63 10 50 33 -5.4 22.2
21:15 1005 29.68 834 24.63 10.1 50.1 33 -5.4 22.4
21:20 1005 29.68 834 24.63 10 50 32 -5.8 21.5
21:25 1005 29.68 834 24.63 10 49.9 33 -5.4 22.3
21:30 1005 29.68 834 24.63 9.7 49.4 34 -5.6 22
21:35 1005 29.68 834 24.63 10 50 33 -5.3 22.4
21:40 1005 29.68 834 24.63 9.9 49.8 33 -5.6 22
21:45 1005 29.68 834 24.63 10 49.9 34 -5.2 22.6
21:50 1005 29.68 834 24.63 9.6 49.2 34 -5.5 22.2
21:55 1005 29.68 834 24.63 9.4 48.9 35 -5.4 22.2
22:00 1005 29.68 834 24.63 9.3 48.7 36 -5.2 22.7
22:05 1005 29.68 835 24.66 9.2 48.5 36 -4.9 23.2
22:10 1005 29.68 835 24.66 9.2 48.6 36 -4.9 23.1
22:15 1005 29.68 835 24.66 9.4 48.9 37 -4.7 23.5
22:20 1005 29.68 835 24.66 9.3 48.7 38 -4.1 24.6
22:25 1005 29.68 835 24.66 9 48.2 39 -4.2 24.5
22:30 1005 29.68 835 24.66 8.9 48.1 38 -4.6 23.7
22:35 1005 29.68 835 24.66 9.1 48.3 38 -4.3 24.2
22:40 1005 29.68 835 24.66 9.2 48.5 39 -4.1 24.6
22:45 1005 29.68 835 24.66 9.2 48.5 39 -4.1 24.6
22:50 1005 29.68 835 24.66 9.2 48.5 39 -4 24.9
22:55 1005 29.68 835 24.66 9 48.2 41 -3.6 25.4
23:00 1005 29.68 835 24.66 9 48.2 40 -3.8 25.1
23:05 1005 29.68 835 24.66 9 48.1 40 -3.7 25.3
23:10 1005 29.68 835 24.66 9.1 48.3 40 -3.8 25.2
23:15 1005 29.68 835 24.66 9.2 48.5 39 -3.9 25
23:20 1005 29.68 835 24.66 9.2 48.5 40 -3.8 25.2
23:25 1005 29.68 835 24.66 8.6 47.5 42 -3.5 25.8
23:30 1006 29.71 835 24.66 8.1 46.6 43 -3.7 25.3
23:35 1006 29.71 835 24.66 7.9 46.3 44 -3.5 25.6
23:40 1006 29.71 835 24.66 8 46.4 43 -3.9 25
23:45 1006 29.71 835 24.66 8 46.4 44 -3.6 25.6
23:50 1006 29.71 835 24.66 8 46.4 44 -3.5 25.8
23:55 1006 29.71 835 24.66 8.2 46.7 44 -3.2 26.2
24:00 1006 29.71 835 24.66 8.2 46.8 45 -3.1 26.5